Terminal Aerodrome Forecast
Issued by NWS

Home | Current Version | Previous Version | Text Only | Print | Product List | Glossary On
Versions: 1 2 3 4 5 6 7 8 9 10 11 12 13
000
FTUS46 KMFR 252344
TAFRBG
TAF
KRBG 252344Z 2600/2624 36005KT P6SM VCSH FEW026 FEW035 OVC100
     FM260600 00000KT 4SM BR OVC007
     FM260900 00000KT 2SM BR OVC001
     FM261200 15002KT 1/4SM FG OVC001
     FM261800 00000KT 4SM BR OVC004
     FM262100 05002KT P6SM OVC050
      AMD NOT SKED=

USA.gov is the U.S. government's official web portal to all federal, state and local government web resources and services.